sensor_id;sensor_type;location;lat;lon;timestamp;pressure;altitude;pressure_sealevel;temperature;humidity
12207;BME280;6166;42.806;23.408;2022-08-21T00:02:18;71567.06;;;-144.35;100.00
12207;BME280;6166;42.806;23.408;2022-08-21T00:04:47;71593.91;;;-144.35;100.00
12207;BME280;6166;42.806;23.408;2022-08-21T00:07:14;71571.19;;;-144.35;100.00
12207;BME280;6166;42.806;23.408;2022-08-21T00:09:41;71560.88;;;-144.35;100.00
12207;BME280;6166;42.806;23.408;2022-08-21T00:12:08;71577.38;;;-144.35;100.00
12207;BME280;6166;42.806;23.408;2022-08-21T00:14:35;71598.03;;;-144.35;100.00
12207;BME280;6166;42.806;23.408;2022-08-21T00:17:02;71593.91;;;-144.35;100.00
12207;BME280;6166;42.806;23.408;2022-08-21T00:19:29;71618.69;;;-144.35;100.00
12207;BME280;6166;42.806;23.408;2022-08-21T00:22:01;71614.56;;;-144.35;100.00
12207;BME280;6166;42.806;23.408;2022-08-21T00:24:30;71593.91;;;-144.35;100.00
12207;BME280;6166;42.806;23.408;2022-08-21T00:26:57;71581.50;;;-144.35;100.00
12207;BME280;6166;42.806;23.408;2022-08-21T00:29:40;71577.38;;;-144.35;100.00
12207;BME280;6166;42.806;23.408;2022-08-21T00:32:07;71571.19;;;-144.35;100.00
12207;BME280;6166;42.806;23.408;2022-08-21T00:34:35;71569.13;;;-144.35;100.00
12207;BME280;6166;42.806;23.408;2022-08-21T00:37:03;71554.69;;;-144.35;100.00
12207;BME280;6166;42.806;23.408;2022-08-21T00:39:30;71560.88;;;-144.35;100.00
12207;BME280;6166;42.806;23.408;2022-08-21T00:41:57;71565.00;;;-144.35;100.00
12207;BME280;6166;42.806;23.408;2022-08-21T00:44:23;71552.59;;;-144.35;100.00
12207;BME280;6166;42.806;23.408;2022-08-21T00:46:50;71548.47;;;-144.35;100.00
12207;BME280;6166;42.806;23.408;2022-08-21T00:49:17;71544.34;;;-144.35;100.00
12207;BME280;6166;42.806;23.408;2022-08-21T00:51:47;71552.59;;;-144.35;100.00
12207;BME280;6166;42.806;23.408;2022-08-21T00:54:18;71546.41;;;-144.35;100.00
12207;BME280;6166;42.806;23.408;2022-08-21T00:56:50;71540.22;;;-144.35;100.00
12207;BME280;6166;42.806;23.408;2022-08-21T00:59:20;71548.47;;;-144.35;100.00
12207;BME280;6166;42.806;23.408;2022-08-21T01:01:48;71573.25;;;-144.35;100.00
12207;BME280;6166;42.806;23.408;2022-08-21T01:04:15;71567.06;;;-144.35;100.00
12207;BME280;6166;42.806;23.408;2022-08-21T01:06:42;71589.78;;;-144.35;100.00
12207;BME280;6166;42.806;23.408;2022-08-21T01:09:09;71581.50;;;-144.35;100.00
12207;BME280;6166;42.806;23.408;2022-08-21T01:11:40;71565.00;;;-144.35;100.00
12207;BME280;6166;42.806;23.408;2022-08-21T01:14:08;71565.00;;;-144.35;100.00
12207;BME280;6166;42.806;23.408;2022-08-21T01:16:38;71581.50;;;-144.35;100.00
12207;BME280;6166;42.806;23.408;2022-08-21T01:19:08;71622.81;;;-144.35;100.00
12207;BME280;6166;42.806;23.408;2022-08-21T01:21:36;71643.44;;;-144.35;100.00
12207;BME280;6166;42.806;23.408;2022-08-21T01:24:03;71651.72;;;-144.35;100.00
12207;BME280;6166;42.806;23.408;2022-08-21T01:26:33;71647.59;;;-144.35;100.00
12207;BME280;6166;42.806;23.408;2022-08-21T01:29:04;71635.19;;;-144.35;100.00
12207;BME280;6166;42.806;23.408;2022-08-21T01:31:33;71624.88;;;-144.35;100.00
12207;BME280;6166;42.806;23.408;2022-08-21T01:34:00;71631.06;;;-144.35;100.00
12207;BME280;6166;42.806;23.408;2022-08-21T01:36:30;71622.81;;;-144.35;100.00
12207;BME280;6166;42.806;23.408;2022-08-21T01:38:59;71602.16;;;-144.35;100.00
12207;BME280;6166;42.806;23.408;2022-08-21T01:41:26;71587.72;;;-144.35;100.00
12207;BME280;6166;42.806;23.408;2022-08-21T01:43:53;71589.78;;;-144.35;100.00
12207;BME280;6166;42.806;23.408;2022-08-21T01:46:20;71583.56;;;-144.35;100.00
12207;BME280;6166;42.806;23.408;2022-08-21T01:48:47;71585.66;;;-144.35;100.00
12207;BME280;6166;42.806;23.408;2022-08-21T01:51:14;71598.03;;;-144.35;100.00
12207;BME280;6166;42.806;23.408;2022-08-21T01:53:45;71587.72;;;-144.35;100.00
12207;BME280;6166;42.806;23.408;2022-08-21T01:56:17;71585.66;;;-144.35;100.00
12207;BME280;6166;42.806;23.408;2022-08-21T01:58:47;71577.38;;;-144.35;100.00
12207;BME280;6166;42.806;23.408;2022-08-21T02:01:17;71573.25;;;-144.35;100.00
12207;BME280;6166;42.806;23.408;2022-08-21T02:03:44;71571.19;;;-144.35;100.00
12207;BME280;6166;42.806;23.408;2022-08-21T02:06:13;71577.38;;;-144.35;100.00
12207;BME280;6166;42.806;23.408;2022-08-21T02:08:48;71581.50;;;-144.35;100.00
12207;BME280;6166;42.806;23.408;2022-08-21T02:11:17;71593.91;;;-144.35;100.00
12207;BME280;6166;42.806;23.408;2022-08-21T02:13:44;71581.50;;;-144.35;100.00
12207;BME280;6166;42.806;23.408;2022-08-21T02:16:11;71577.38;;;-144.35;100.00
12207;BME280;6166;42.806;23.408;2022-08-21T02:18:38;71581.50;;;-144.35;100.00
12207;BME280;6166;42.806;23.408;2022-08-21T02:21:06;71585.66;;;-144.35;100.00
12207;BME280;6166;42.806;23.408;2022-08-21T02:23:33;71595.97;;;-144.35;100.00
12207;BME280;6166;42.806;23.408;2022-08-21T02:26:02;71612.47;;;-144.35;100.00
12207;BME280;6166;42.806;23.408;2022-08-21T02:28:30;71626.94;;;-144.35;100.00
12207;BME280;6166;42.806;23.408;2022-08-21T02:30:57;71659.97;;;-144.35;100.00
12207;BME280;6166;42.806;23.408;2022-08-21T02:33:26;71672.34;;;-144.35;100.00
12207;BME280;6166;42.806;23.408;2022-08-21T02:35:56;71686.81;;;-144.35;100.00
12207;BME280;6166;42.806;23.408;2022-08-21T02:38:26;71697.13;;;-144.35;100.00
12207;BME280;6166;42.806;23.408;2022-08-21T02:40:58;71701.25;;;-144.35;100.00
12207;BME280;6166;42.806;23.408;2022-08-21T02:43:26;71713.66;;;-144.35;100.00
12207;BME280;6166;42.806;23.408;2022-08-21T02:45:56;71697.13;;;-144.35;100.00
12207;BME280;6166;42.806;23.408;2022-08-21T02:48:29;71684.75;;;-144.35;100.00
12207;BME280;6166;42.806;23.408;2022-08-21T02:50:59;71688.88;;;-144.35;100.00
12207;BME280;6166;42.806;23.408;2022-08-21T02:53:30;71682.69;;;-144.35;100.00
12207;BME280;6166;42.806;23.408;2022-08-21T02:56:00;71678.56;;;-144.35;100.00
12207;BME280;6166;42.806;23.408;2022-08-21T02:58:33;71674.41;;;-144.35;100.00
12207;BME280;6166;42.806;23.408;2022-08-21T03:01:01;71662.03;;;-144.35;100.00
12207;BME280;6166;42.806;23.408;2022-08-21T03:03:29;71668.22;;;-144.35;100.00
12207;BME280;6166;42.806;23.408;2022-08-21T03:05:56;71668.22;;;-144.35;100.00
12207;BME280;6166;42.806;23.408;2022-08-21T03:08:23;71655.84;;;-144.35;100.00
12207;BME280;6166;42.806;23.408;2022-08-21T03:10:52;71649.66;;;-144.35;100.00
12207;BME280;6166;42.806;23.408;2022-08-21T03:13:22;71659.97;;;-144.35;100.00
12207;BME280;6166;42.806;23.408;2022-08-21T03:15:49;71655.84;;;-144.35;100.00
12207;BME280;6166;42.806;23.408;2022-08-21T03:18:18;71651.72;;;-144.35;100.00
12207;BME280;6166;42.806;23.408;2022-08-21T03:20:46;71649.66;;;-144.35;100.00
12207;BME280;6166;42.806;23.408;2022-08-21T03:23:22;71647.59;;;-144.35;100.00
12207;BME280;6166;42.806;23.408;2022-08-21T03:25:56;71647.59;;;-144.35;100.00
12207;BME280;6166;42.806;23.408;2022-08-21T03:28:23;71639.31;;;-144.35;100.00
12207;BME280;6166;42.806;23.408;2022-08-21T03:30:51;71633.13;;;-144.35;100.00
12207;BME280;6166;42.806;23.408;2022-08-21T03:33:21;71624.88;;;-144.35;100.00
12207;BME280;6166;42.806;23.408;2022-08-21T03:35:56;71629.00;;;-144.35;100.00
12207;BME280;6166;42.806;23.408;2022-08-21T03:38:27;71622.81;;;-144.35;100.00
12207;BME280;6166;42.806;23.408;2022-08-21T03:40:54;71614.56;;;-144.35;100.00
12207;BME280;6166;42.806;23.408;2022-08-21T03:43:22;71614.56;;;-144.35;100.00
12207;BME280;6166;42.806;23.408;2022-08-21T03:45:55;71614.56;;;-144.35;100.00
12207;BME280;6166;42.806;23.408;2022-08-21T03:48:35;71610.41;;;-144.35;100.00
12207;BME280;6166;42.806;23.408;2022-08-21T03:51:03;71606.28;;;-144.35;100.00
12207;BME280;6166;42.806;23.408;2022-08-21T03:53:38;71610.41;;;-144.35;100.00
12207;BME280;6166;42.806;23.408;2022-08-21T03:56:22;71614.56;;;-144.35;100.00
12207;BME280;6166;42.806;23.408;2022-08-21T03:58:50;71620.75;;;-144.35;100.00
12207;BME280;6166;42.806;23.408;2022-08-21T04:01:16;71620.75;;;-144.35;100.00
12207;BME280;6166;42.806;23.408;2022-08-21T04:03:45;71643.44;;;-144.35;100.00
12207;BME280;6166;42.806;23.408;2022-08-21T04:06:11;71639.31;;;-144.35;100.00
12207;BME280;6166;42.806;23.408;2022-08-21T04:08:38;71637.25;;;-144.35;100.00
12207;BME280;6166;42.806;23.408;2022-08-21T04:11:08;71637.25;;;-144.35;100.00
12207;BME280;6166;42.806;23.408;2022-08-21T04:13:36;71668.22;;;-144.35;100.00
12207;BME280;6166;42.806;23.408;2022-08-21T04:16:03;71662.03;;;-144.35;100.00
12207;BME280;6166;42.806;23.408;2022-08-21T04:18:30;71653.78;;;-144.35;100.00
12207;BME280;6166;42.806;23.408;2022-08-21T04:20:59;71653.78;;;-144.35;100.00
12207;BME280;6166;42.806;23.408;2022-08-21T04:23:26;71651.72;;;-144.35;100.00
12207;BME280;6166;42.806;23.408;2022-08-21T04:25:55;71645.53;;;-144.35;100.00
12207;BME280;6166;42.806;23.408;2022-08-21T04:28:22;71651.72;;;-144.35;100.00
12207;BME280;6166;42.806;23.408;2022-08-21T04:30:49;71668.22;;;-144.35;100.00
12207;BME280;6166;42.806;23.408;2022-08-21T04:33:17;71659.97;;;-144.35;100.00
12207;BME280;6166;42.806;23.408;2022-08-21T04:35:44;71657.91;;;-144.35;100.00
12207;BME280;6166;42.806;23.408;2022-08-21T04:38:18;71659.97;;;-144.35;100.00
12207;BME280;6166;42.806;23.408;2022-08-21T04:40:46;71668.22;;;-144.35;100.00
12207;BME280;6166;42.806;23.408;2022-08-21T04:43:14;71668.22;;;-144.35;100.00
12207;BME280;6166;42.806;23.408;2022-08-21T04:45:43;71649.66;;;-144.35;100.00
12207;BME280;6166;42.806;23.408;2022-08-21T04:48:14;71639.31;;;-144.35;100.00
12207;BME280;6166;42.806;23.408;2022-08-21T04:50:50;71631.06;;;-144.35;100.00
12207;BME280;6166;42.806;23.408;2022-08-21T04:53:22;71622.81;;;-144.35;100.00
12207;BME280;6166;42.806;23.408;2022-08-21T04:55:54;71622.81;;;-144.35;100.00
12207;BME280;6166;42.806;23.408;2022-08-21T04:58:25;71618.69;;;-144.35;100.00
12207;BME280;6166;42.806;23.408;2022-08-21T05:00:54;71606.28;;;-144.35;100.00
12207;BME280;6166;42.806;23.408;2022-08-21T05:03:21;71606.28;;;-144.35;100.00
12207;BME280;6166;42.806;23.408;2022-08-21T05:05:48;71604.22;;;-144.35;100.00
12207;BME280;6166;42.806;23.408;2022-08-21T05:08:18;71595.97;;;-144.35;100.00
12207;BME280;6166;42.806;23.408;2022-08-21T05:10:47;71598.03;;;-144.35;100.00
12207;BME280;6166;42.806;23.408;2022-08-21T05:13:14;71589.78;;;-144.35;100.00
12207;BME280;6166;42.806;23.408;2022-08-21T05:15:47;71567.06;;;-144.35;100.00
12207;BME280;6166;42.806;23.408;2022-08-21T05:18:13;71550.53;;;-144.35;100.00
12207;BME280;6166;42.806;23.408;2022-08-21T05:20:40;71521.66;;;-144.35;100.00
12207;BME280;6166;42.806;23.408;2022-08-21T05:23:09;71505.13;;;-144.35;100.00
12207;BME280;6166;42.806;23.408;2022-08-21T05:25:37;71486.53;;;-144.35;100.00
12207;BME280;6166;42.806;23.408;2022-08-21T05:28:06;71465.91;;;-144.35;100.00
12207;BME280;6166;42.806;23.408;2022-08-21T05:30:38;71441.13;;;-144.35;100.00
12207;BME280;6166;42.806;23.408;2022-08-21T05:33:08;71428.75;;;-144.35;100.00
12207;BME280;6166;42.806;23.408;2022-08-21T05:35:35;71461.78;;;-144.35;100.00
12207;BME280;6166;42.806;23.408;2022-08-21T05:38:03;71453.50;;;-144.35;100.00
12207;BME280;6166;42.806;23.408;2022-08-21T05:40:30;71437.00;;;-144.35;100.00
12207;BME280;6166;42.806;23.408;2022-08-21T05:42:58;71470.03;;;-144.35;100.00
12207;BME280;6166;42.806;23.408;2022-08-21T05:45:32;71507.19;;;-144.35;100.00
12207;BME280;6166;42.806;23.408;2022-08-21T05:48:05;71486.53;;;-144.35;100.00
12207;BME280;6166;42.806;23.408;2022-08-21T05:50:32;71486.53;;;-144.35;100.00
12207;BME280;6166;42.806;23.408;2022-08-21T05:52:59;71486.53;;;-144.35;100.00
12207;BME280;6166;42.806;23.408;2022-08-21T05:55:26;71517.50;;;-144.35;100.00
12207;BME280;6166;42.806;23.408;2022-08-21T05:57:53;71494.81;;;-144.35;100.00
12207;BME280;6166;42.806;23.408;2022-08-21T06:00:21;71498.94;;;-144.35;100.00
12207;BME280;6166;42.806;23.408;2022-08-21T06:03:07;71463.84;;;-144.35;100.00
12207;BME280;6166;42.806;23.408;2022-08-21T06:05:36;71426.66;;;-144.35;100.00
12207;BME280;6166;42.806;23.408;2022-08-21T06:08:03;71445.25;;;-144.35;99.19
12207;BME280;6166;42.806;23.408;2022-08-21T06:10:30;71424.59;;;-144.35;99.56
12207;BME280;6166;42.806;23.408;2022-08-21T06:12:57;71391.56;;;-144.35;100.00
12207;BME280;6166;42.806;23.408;2022-08-21T06:15:23;71370.94;;;-144.35;99.86
12207;BME280;6166;42.806;23.408;2022-08-21T06:17:51;71368.88;;;-144.35;99.19
12207;BME280;6166;42.806;23.408;2022-08-21T06:20:18;71379.19;;;-144.35;99.65
12207;BME280;6166;42.806;23.408;2022-08-21T06:22:45;71370.94;;;-144.35;98.40
12207;BME280;6166;42.806;23.408;2022-08-21T06:25:12;71408.09;;;-144.35;99.33
12207;BME280;6166;42.806;23.408;2022-08-21T06:27:41;71449.38;;;-144.35;100.00
12207;BME280;6166;42.806;23.408;2022-08-21T06:30:14;71474.16;;;-144.35;100.00
12207;BME280;6166;42.806;23.408;2022-08-21T06:32:46;71461.78;;;-144.35;100.00
12207;BME280;6166;42.806;23.408;2022-08-21T06:35:14;71484.47;;;-144.35;100.00
12207;BME280;6166;42.806;23.408;2022-08-21T06:37:41;71511.31;;;-144.35;100.00
12207;BME280;6166;42.806;23.408;2022-08-21T06:40:09;71523.72;;;-144.35;100.00
12207;BME280;6166;42.806;23.408;2022-08-21T06:42:35;71519.56;;;-144.35;100.00
12207;BME280;6166;42.806;23.408;2022-08-21T06:45:03;71507.19;;;-144.35;100.00
12207;BME280;6166;42.806;23.408;2022-08-21T06:47:32;71498.94;;;-144.35;100.00
12207;BME280;6166;42.806;23.408;2022-08-21T06:49:58;71519.56;;;-144.35;100.00
12207;BME280;6166;42.806;23.408;2022-08-21T06:52:29;71521.66;;;-144.35;100.00
12207;BME280;6166;42.806;23.408;2022-08-21T06:54:57;71478.28;;;-144.35;100.00
12207;BME280;6166;42.806;23.408;2022-08-21T06:57:24;71470.03;;;-144.35;100.00
12207;BME280;6166;42.806;23.408;2022-08-21T06:59:51;71408.09;;;-144.35;100.00
12207;BME280;6166;42.806;23.408;2022-08-21T07:02:21;71350.28;;;-144.35;100.00
12207;BME280;6166;42.806;23.408;2022-08-21T07:04:48;71381.25;;;-144.35;99.27
12207;BME280;6166;42.806;23.408;2022-08-21T07:07:14;71329.66;;;-144.35;100.00
12207;BME280;6166;42.806;23.408;2022-08-21T07:09:42;71255.31;;;-144.35;99.41
12207;BME280;6166;42.806;23.408;2022-08-21T07:12:09;71232.63;;;-144.35;93.59
12207;BME280;6166;42.806;23.408;2022-08-21T07:14:36;71203.72;;;-144.35;91.11
12207;BME280;6166;42.806;23.408;2022-08-21T07:17:03;71214.03;;;-144.35;90.84
12207;BME280;6166;42.806;23.408;2022-08-21T07:19:30;71214.03;;;-144.35;89.42
12207;BME280;6166;42.806;23.408;2022-08-21T07:22:00;71275.97;;;-144.35;90.12
12207;BME280;6166;42.806;23.408;2022-08-21T07:24:27;71337.91;;;-144.35;92.75
12207;BME280;6166;42.806;23.408;2022-08-21T07:26:55;71350.28;;;-144.35;94.69
12207;BME280;6166;42.806;23.408;2022-08-21T07:29:22;71315.19;;;-144.35;91.83
12207;BME280;6166;42.806;23.408;2022-08-21T07:31:49;71300.75;;;-144.35;91.92
12207;BME280;6166;42.806;23.408;2022-08-21T07:34:16;71242.94;;;-144.35;90.87
12207;BME280;6166;42.806;23.408;2022-08-21T07:36:42;71201.66;;;-144.35;88.67
12207;BME280;6166;42.806;23.408;2022-08-21T07:39:09;71164.50;;;-144.35;88.11
12207;BME280;6166;42.806;23.408;2022-08-21T07:41:36;71220.22;;;-144.35;86.00
12207;BME280;6166;42.806;23.408;2022-08-21T07:44:07;71222.28;;;-144.35;86.93
12207;BME280;6166;42.806;23.408;2022-08-21T07:46:34;71162.44;;;-144.35;85.90
12207;BME280;6166;42.806;23.408;2022-08-21T07:49:00;71108.75;;;-144.35;82.65
12207;BME280;6166;42.806;23.408;2022-08-21T07:51:28;71073.66;;;-144.35;83.19
12207;BME280;6166;42.806;23.408;2022-08-21T07:53:57;71022.06;;;-144.35;81.68
12207;BME280;6166;42.806;23.408;2022-08-21T07:56:24;70991.09;;;-144.35;80.34
12207;BME280;6166;42.806;23.408;2022-08-21T07:58:51;70991.09;;;-144.35;78.39
12207;BME280;6166;42.806;23.408;2022-08-21T08:01:19;71003.47;;;-144.35;78.60
12207;BME280;6166;42.806;23.408;2022-08-21T08:03:46;70960.13;;;-144.35;78.42
12207;BME280;6166;42.806;23.408;2022-08-21T08:06:13;70949.81;;;-144.35;77.20
12207;BME280;6166;42.806;23.408;2022-08-21T08:08:42;70974.56;;;-144.35;76.97
12207;BME280;6166;42.806;23.408;2022-08-21T08:11:10;71017.91;;;-144.35;78.38
12207;BME280;6166;42.806;23.408;2022-08-21T08:13:38;71003.47;;;-144.35;78.31
12207;BME280;6166;42.806;23.408;2022-08-21T08:16:06;70986.97;;;-144.35;76.54
12207;BME280;6166;42.806;23.408;2022-08-21T08:18:34;70966.31;;;-144.35;78.00
12207;BME280;6166;42.806;23.408;2022-08-21T08:21:01;70949.81;;;-144.35;75.17
12207;BME280;6166;42.806;23.408;2022-08-21T08:23:28;71011.72;;;-144.35;78.34
12207;BME280;6166;42.806;23.408;2022-08-21T08:25:56;70962.19;;;-144.35;77.62
12207;BME280;6166;42.806;23.408;2022-08-21T08:28:22;70989.03;;;-144.35;76.61
12207;BME280;6166;42.806;23.408;2022-08-21T08:30:51;70982.84;;;-144.35;77.83
12207;BME280;6166;42.806;23.408;2022-08-21T08:33:18;70927.09;;;-144.35;77.41
12207;BME280;6166;42.806;23.408;2022-08-21T08:35:49;70929.16;;;-144.35;75.25
12207;BME280;6166;42.806;23.408;2022-08-21T08:38:18;70949.81;;;-144.35;75.33
12207;BME280;6166;42.806;23.408;2022-08-21T08:40:50;71028.25;;;-144.35;79.75
12207;BME280;6166;42.806;23.408;2022-08-21T08:43:19;70991.09;;;-144.35;75.48
12207;BME280;6166;42.806;23.408;2022-08-21T08:45:49;70976.63;;;-144.35;75.95
12207;BME280;6166;42.806;23.408;2022-08-21T08:48:30;70925.03;;;-144.35;77.41
12207;BME280;6166;42.806;23.408;2022-08-21T08:51:00;70900.25;;;-144.35;74.09
12207;BME280;6166;42.806;23.408;2022-08-21T08:53:31;70898.19;;;-144.35;73.97
12207;BME280;6166;42.806;23.408;2022-08-21T08:56:00;70962.19;;;-144.35;75.88
12207;BME280;6166;42.806;23.408;2022-08-21T08:58:34;70918.84;;;-144.35;73.97
12207;BME280;6166;42.806;23.408;2022-08-21T09:01:06;70896.13;;;-144.35;73.13
12207;BME280;6166;42.806;23.408;2022-08-21T09:03:39;70904.38;;;-144.35;73.97
12207;BME280;6166;42.806;23.408;2022-08-21T09:06:12;70896.13;;;-144.35;71.69
12207;BME280;6166;42.806;23.408;2022-08-21T09:08:50;70900.25;;;-144.35;71.03
12207;BME280;6166;42.806;23.408;2022-08-21T09:11:27;70925.03;;;-144.35;73.85
12207;BME280;6166;42.806;23.408;2022-08-21T09:14:01;70922.97;;;-144.35;74.21
12207;BME280;6166;42.806;23.408;2022-08-21T09:16:40;70995.22;;;-144.35;77.78
12207;BME280;6166;42.806;23.408;2022-08-21T09:19:24;70995.22;;;-144.35;77.18
12207;BME280;6166;42.806;23.408;2022-08-21T09:22:02;70941.53;;;-144.35;76.81
12207;BME280;6166;42.806;23.408;2022-08-21T09:24:38;70927.09;;;-144.35;74.28
12207;BME280;6166;42.806;23.408;2022-08-21T09:27:10;70920.91;;;-144.35;77.00
12207;BME280;6166;42.806;23.408;2022-08-21T09:29:39;70916.78;;;-144.35;74.80
12207;BME280;6166;42.806;23.408;2022-08-21T09:32:11;70908.53;;;-144.35;72.14
12207;BME280;6166;42.806;23.408;2022-08-21T09:34:42;70906.44;;;-144.35;74.15
12207;BME280;6166;42.806;23.408;2022-08-21T09:37:17;70883.75;;;-144.35;72.23
12207;BME280;6166;42.806;23.408;2022-08-21T09:39:44;70854.84;;;-144.35;71.11
12207;BME280;6166;42.806;23.408;2022-08-21T09:42:11;70809.44;;;-144.35;69.98
12207;BME280;6166;42.806;23.408;2022-08-21T09:44:47;70811.50;;;-144.35;68.19
12207;BME280;6166;42.806;23.408;2022-08-21T09:47:18;70784.66;;;-144.35;68.50
12207;BME280;6166;42.806;23.408;2022-08-21T09:49:46;70726.88;;;-144.35;68.33
12207;BME280;6166;42.806;23.408;2022-08-21T09:52:18;70722.75;;;-144.35;67.97
12207;BME280;6166;42.806;23.408;2022-08-21T09:54:51;70722.75;;;-144.35;64.66
12207;BME280;6166;42.806;23.408;2022-08-21T09:57:23;70790.84;;;-144.35;66.25
12207;BME280;6166;42.806;23.408;2022-08-21T10:00:10;70786.72;;;-144.35;67.67
12207;BME280;6166;42.806;23.408;2022-08-21T10:02:54;70755.78;;;-144.35;68.99
12207;BME280;6166;42.806;23.408;2022-08-21T10:05:23;70761.97;;;-144.35;67.01
12207;BME280;6166;42.806;23.408;2022-08-21T10:07:52;70743.38;;;-144.35;66.15
12207;BME280;6166;42.806;23.408;2022-08-21T10:10:21;70697.97;;;-144.35;66.77
12207;BME280;6166;42.806;23.408;2022-08-21T10:12:53;70683.53;;;-144.35;62.83
12207;BME280;6166;42.806;23.408;2022-08-21T10:15:40;70660.81;;;-144.35;62.86
12207;BME280;6166;42.806;23.408;2022-08-21T10:18:14;70656.69;;;-144.35;63.16
12207;BME280;6166;42.806;23.408;2022-08-21T10:20:47;70731.00;;;-144.35;66.10
12207;BME280;6166;42.806;23.408;2022-08-21T10:23:40;70784.66;;;-144.35;66.87
12207;BME280;6166;42.806;23.408;2022-08-21T10:26:19;70821.81;;;-144.35;67.52
12207;BME280;6166;42.806;23.408;2022-08-21T10:28:54;70842.47;;;-144.35;69.29
12207;BME280;6166;42.806;23.408;2022-08-21T10:31:29;70846.59;;;-144.35;68.43
12207;BME280;6166;42.806;23.408;2022-08-21T10:34:08;70830.06;;;-144.35;69.74
12207;BME280;6166;42.806;23.408;2022-08-21T10:36:43;70836.28;;;-144.35;68.69
12207;BME280;6166;42.806;23.408;2022-08-21T10:39:20;70830.06;;;-144.35;69.90
12207;BME280;6166;42.806;23.408;2022-08-21T10:42:03;70811.50;;;-144.35;70.56
12207;BME280;6166;42.806;23.408;2022-08-21T10:44:38;70805.31;;;-144.35;68.13
12207;BME280;6166;42.806;23.408;2022-08-21T10:47:12;70830.06;;;-144.35;67.40
12207;BME280;6166;42.806;23.408;2022-08-21T10:49:47;70830.06;;;-144.35;68.44
12207;BME280;6166;42.806;23.408;2022-08-21T10:52:29;70832.16;;;-144.35;67.78
12207;BME280;6166;42.806;23.408;2022-08-21T10:55:06;70850.72;;;-144.35;65.54
12207;BME280;6166;42.806;23.408;2022-08-21T10:57:40;70836.28;;;-144.35;69.44
12207;BME280;6166;42.806;23.408;2022-08-21T11:00:11;70819.75;;;-144.35;68.34
12207;BME280;6166;42.806;23.408;2022-08-21T11:02:41;70825.94;;;-144.35;68.14
12207;BME280;6166;42.806;23.408;2022-08-21T11:05:13;70819.75;;;-144.35;68.52
12207;BME280;6166;42.806;23.408;2022-08-21T11:07:45;70813.56;;;-144.35;66.99
12207;BME280;6166;42.806;23.408;2022-08-21T11:10:18;70792.94;;;-144.35;68.43
12207;BME280;6166;42.806;23.408;2022-08-21T11:12:52;70792.94;;;-144.35;64.96
12207;BME280;6166;42.806;23.408;2022-08-21T11:15:32;70776.41;;;-144.35;66.58
12207;BME280;6166;42.806;23.408;2022-08-21T11:18:10;70747.50;;;-144.35;65.07
12207;BME280;6166;42.806;23.408;2022-08-21T11:20:42;70731.00;;;-144.35;66.14
12207;BME280;6166;42.806;23.408;2022-08-21T11:23:15;70714.50;;;-144.35;64.08
12207;BME280;6166;42.806;23.408;2022-08-21T11:25:48;70700.03;;;-144.35;65.50
12207;BME280;6166;42.806;23.408;2022-08-21T11:28:23;70669.06;;;-144.35;64.11
12207;BME280;6166;42.806;23.408;2022-08-21T11:30:59;70648.44;;;-144.35;64.54
12207;BME280;6166;42.806;23.408;2022-08-21T11:33:41;70652.56;;;-144.35;61.31
12207;BME280;6166;42.806;23.408;2022-08-21T11:36:15;70627.78;;;-144.35;62.53
12207;BME280;6166;42.806;23.408;2022-08-21T11:38:53;70629.88;;;-144.35;60.82
12207;BME280;6166;42.806;23.408;2022-08-21T11:41:28;70603.03;;;-144.35;63.16
12207;BME280;6166;42.806;23.408;2022-08-21T11:44:02;70596.84;;;-144.35;58.23
12207;BME280;6166;42.806;23.408;2022-08-21T11:46:35;70580.31;;;-144.35;58.89
12207;BME280;6166;42.806;23.408;2022-08-21T11:49:25;70598.91;;;-144.35;59.70
12207;BME280;6166;42.806;23.408;2022-08-21T11:51:57;70598.91;;;-144.35;60.87
12207;BME280;6166;42.806;23.408;2022-08-21T11:54:34;70619.53;;;-144.35;61.71
12207;BME280;6166;42.806;23.408;2022-08-21T11:57:05;70644.31;;;-144.35;60.86
12207;BME280;6166;42.806;23.408;2022-08-21T11:59:36;70644.31;;;-144.35;62.32
12207;BME280;6166;42.806;23.408;2022-08-21T12:02:09;70631.94;;;-144.35;62.12
12207;BME280;6166;42.806;23.408;2022-08-21T12:04:44;70611.28;;;-144.35;63.38
12207;BME280;6166;42.806;23.408;2022-08-21T12:07:13;70594.78;;;-144.35;61.24
12207;BME280;6166;42.806;23.408;2022-08-21T12:09:52;70590.66;;;-144.35;58.81
12207;BME280;6166;42.806;23.408;2022-08-21T12:12:26;70594.78;;;-144.35;56.38
12207;BME280;6166;42.806;23.408;2022-08-21T12:15:13;70607.16;;;-144.35;59.89
12207;BME280;6166;42.806;23.408;2022-08-21T12:17:54;70644.31;;;-144.35;61.08
12207;BME280;6166;42.806;23.408;2022-08-21T12:20:32;70660.81;;;-144.35;62.15
12207;BME280;6166;42.806;23.408;2022-08-21T12:23:05;70667.00;;;-144.35;62.68
12207;BME280;6166;42.806;23.408;2022-08-21T12:25:37;70654.63;;;-144.35;63.03
12207;BME280;6166;42.806;23.408;2022-08-21T12:28:14;70669.06;;;-144.35;60.30
12207;BME280;6166;42.806;23.408;2022-08-21T12:30:44;70664.94;;;-144.35;61.08
12207;BME280;6166;42.806;23.408;2022-08-21T12:33:24;70669.06;;;-144.35;62.18
12207;BME280;6166;42.806;23.408;2022-08-21T12:36:00;70683.53;;;-144.35;64.26
12207;BME280;6166;42.806;23.408;2022-08-21T12:38:33;70706.22;;;-144.35;60.80
12207;BME280;6166;42.806;23.408;2022-08-21T12:41:10;70702.09;;;-144.35;64.04
12207;BME280;6166;42.806;23.408;2022-08-21T12:43:42;70739.25;;;-144.35;64.88
12207;BME280;6166;42.806;23.408;2022-08-21T12:46:16;70726.88;;;-144.35;66.38
12207;BME280;6166;42.806;23.408;2022-08-21T12:48:48;70735.13;;;-144.35;64.85
12207;BME280;6166;42.806;23.408;2022-08-21T12:51:21;70747.50;;;-144.35;64.67
12207;BME280;6166;42.806;23.408;2022-08-21T12:53:50;70757.84;;;-144.35;65.08